createdAt,value
2019-05-25T00:01:52.232Z,10.40
2019-05-25T00:04:22.378Z,10.87
2019-05-25T00:06:52.512Z,10.23
2019-05-25T00:09:22.653Z,9.73
2019-05-25T00:11:52.770Z,12.03
2019-05-25T00:14:22.997Z,12.47
2019-05-25T00:16:53.095Z,8.57
2019-05-25T00:19:23.207Z,10.60
2019-05-25T00:22:16.430Z,9.60
2019-05-25T00:24:46.550Z,10.33
2019-05-25T00:27:42.851Z,11.60
2019-05-25T00:30:13.085Z,10.13
2019-05-25T00:33:05.928Z,7.53
2019-05-25T00:35:36.111Z,9.90
2019-05-25T00:38:27.282Z,10.70
2019-05-25T00:40:57.414Z,8.93
2019-05-25T00:43:50.834Z,9.57
2019-05-25T00:46:20.953Z,9.70
2019-05-25T00:49:08.000Z,10.87
2019-05-25T00:51:38.149Z,9.87
2019-05-25T00:54:08.254Z,9.80
2019-05-25T00:56:38.498Z,13.07
2019-05-25T00:59:08.648Z,9.47
2019-05-25T01:01:38.850Z,9.87
2019-05-25T01:04:08.941Z,10.20
2019-05-25T01:06:39.576Z,9.67
2019-05-25T01:09:09.736Z,8.67
2019-05-25T01:11:39.874Z,10.97
2019-05-25T01:14:10.066Z,12.20
2019-05-25T01:16:40.620Z,11.23
2019-05-25T01:19:10.724Z,8.90
2019-05-25T01:21:40.866Z,11.63
2019-05-25T01:24:11.096Z,9.63
2019-05-25T01:27:02.137Z,11.10
2019-05-25T01:29:32.256Z,9.77
2019-05-25T01:32:24.178Z,9.87
2019-05-25T01:34:54.298Z,8.87
2019-05-25T01:37:24.613Z,12.90
2019-05-25T01:39:55.158Z,7.03
2019-05-25T01:42:25.319Z,9.23
2019-05-25T01:44:55.446Z,9.00
2019-05-25T01:47:25.607Z,11.53
2019-05-25T01:49:55.713Z,10.10
2019-05-25T01:52:25.917Z,10.50
2019-05-25T01:54:59.813Z,8.57
2019-05-25T01:57:27.805Z,9.80
2019-05-25T01:59:57.933Z,8.93
2019-05-25T02:02:28.101Z,9.20
2019-05-25T02:04:58.830Z,10.00
2019-05-25T02:07:28.950Z,9.57
2019-05-25T02:10:18.430Z,11.37
2019-05-25T02:12:48.620Z,12.17
2019-05-25T02:15:32.645Z,11.77
2019-05-25T02:18:01.713Z,9.40
2019-05-25T02:20:31.858Z,12.23
2019-05-25T02:23:02.009Z,9.83
2019-05-25T02:25:32.109Z,8.50
2019-05-25T02:28:02.202Z,12.63
2019-05-25T02:30:32.386Z,11.13
2019-05-25T02:33:02.511Z,10.57
2019-05-25T02:35:32.594Z,11.23
2019-05-25T02:38:02.727Z,9.77
2019-05-25T02:40:32.821Z,9.23
2019-05-25T02:43:02.998Z,10.30
2019-05-25T02:45:33.144Z,9.93
2019-05-25T02:48:06.288Z,7.70
2019-05-25T02:50:36.438Z,11.40
2019-05-25T02:53:27.778Z,10.30
2019-05-25T02:55:57.853Z,8.57
2019-05-25T02:58:49.989Z,12.10
2019-05-25T03:01:20.202Z,8.53
2019-05-25T03:04:12.294Z,7.93
2019-05-25T03:06:43.475Z,7.57
2019-05-25T03:09:27.153Z,7.67
2019-05-25T03:11:59.603Z,7.53
2019-05-25T03:14:29.684Z,7.43
2019-05-25T03:16:59.775Z,10.00
2019-05-25T03:19:30.005Z,9.27
2019-05-25T03:22:00.288Z,8.43
2019-05-25T03:24:30.370Z,8.27
2019-05-25T03:27:00.561Z,8.90
2019-05-25T03:29:30.692Z,11.03
2019-05-25T03:32:00.825Z,10.70
2019-05-25T03:34:30.925Z,6.57
2019-05-25T03:37:01.090Z,10.40
2019-05-25T03:39:31.194Z,8.57
2019-05-25T03:42:04.366Z,7.70
2019-05-25T03:44:34.501Z,9.10
2019-05-25T03:47:24.931Z,7.07
2019-05-25T03:49:55.169Z,7.90
2019-05-25T03:52:29.790Z,8.87
2019-05-25T03:54:59.814Z,7.10
2019-05-25T03:57:30.144Z,6.53
2019-05-25T04:00:00.261Z,8.03
2019-05-25T04:02:30.424Z,6.90
2019-05-25T04:05:00.546Z,7.50
2019-05-25T04:07:30.677Z,5.57
2019-05-25T04:10:00.794Z,6.73
2019-05-25T04:12:30.905Z,6.23
2019-05-25T04:15:01.105Z,6.27
2019-05-25T04:17:31.257Z,6.60
2019-05-25T04:20:01.395Z,7.27
2019-05-25T04:22:31.588Z,8.23
2019-05-25T04:25:13.315Z,7.07
2019-05-25T04:27:43.767Z,7.17
2019-05-25T04:30:30.364Z,6.93
2019-05-25T04:32:51.142Z,6.47
2019-05-25T04:35:21.291Z,6.30
2019-05-25T04:37:51.398Z,5.37
2019-05-25T04:40:23.129Z,6.80
2019-05-25T04:42:53.311Z,5.93
2019-05-25T04:45:23.457Z,7.00
2019-05-25T04:47:53.584Z,6.43
2019-05-25T04:50:23.725Z,7.47
2019-05-25T04:52:53.869Z,6.63
2019-05-25T04:55:24.055Z,6.43
2019-05-25T04:57:54.169Z,5.47
2019-05-25T05:00:24.331Z,4.57
2019-05-25T05:03:03.813Z,7.47
2019-05-25T05:05:33.916Z,5.27
2019-05-25T05:08:26.180Z,5.77
2019-05-25T05:10:56.291Z,3.60
2019-05-25T05:13:57.688Z,4.67
2019-05-25T05:16:27.893Z,5.67
2019-05-25T05:19:17.579Z,3.87
2019-05-25T05:21:47.708Z,3.40
2019-05-25T05:24:36.096Z,3.73
2019-05-25T05:27:06.270Z,3.60
2019-05-25T05:32:27.419Z,4.10
2019-05-25T05:34:55.941Z,3.67
2019-05-25T05:37:26.256Z,3.97
2019-05-25T05:39:58.293Z,3.10
2019-05-25T05:42:28.964Z,3.10
2019-05-25T05:45:00.715Z,4.03
2019-05-25T05:47:34.429Z,4.10
2019-05-25T05:50:05.635Z,3.43
2019-05-25T05:52:40.812Z,4.53
2019-05-25T05:55:12.265Z,4.77
2019-05-25T05:57:42.377Z,3.23
2019-05-25T06:00:14.120Z,3.03
2019-05-25T06:02:44.344Z,3.53
2019-05-25T06:05:14.677Z,3.93
2019-05-25T06:08:05.538Z,3.30
2019-05-25T06:10:35.734Z,3.87
2019-05-25T06:13:05.830Z,3.40
2019-05-25T06:15:35.949Z,4.93
2019-05-25T06:18:06.085Z,3.77
2019-05-25T06:20:36.254Z,4.30
2019-05-25T06:23:09.827Z,4.23
2019-05-25T06:25:38.159Z,3.83
2019-05-25T06:28:08.364Z,3.83
2019-05-25T06:30:38.472Z,5.43
2019-05-25T06:33:08.586Z,3.00
2019-05-25T06:35:38.730Z,3.47
2019-05-25T06:38:08.875Z,3.23
2019-05-25T06:40:39.045Z,3.47
2019-05-25T06:43:09.220Z,5.63
2019-05-25T06:45:39.347Z,5.30
2019-05-25T06:48:09.528Z,6.40
2019-05-25T06:50:39.811Z,5.47
2019-05-25T06:53:09.998Z,3.83
2019-05-25T06:55:40.095Z,5.67
2019-05-25T06:58:10.226Z,3.37
2019-05-25T07:00:40.429Z,4.77
2019-05-25T07:03:24.120Z,3.70
2019-05-25T07:05:54.308Z,5.10
2019-05-25T07:08:24.463Z,5.00
2019-05-25T07:10:54.676Z,4.43
2019-05-25T07:13:27.956Z,4.30
2019-05-25T07:15:56.537Z,5.93
2019-05-25T07:18:26.684Z,3.93
2019-05-25T07:20:56.792Z,4.43
2019-05-25T07:23:26.949Z,4.80
2019-05-25T07:25:57.064Z,4.67
2019-05-25T07:28:27.188Z,3.70
2019-05-25T07:30:57.281Z,5.73
2019-05-25T07:33:27.470Z,8.57
2019-05-25T07:36:11.642Z,4.47
2019-05-25T07:38:41.786Z,4.70
2019-05-25T07:41:33.625Z,6.43
2019-05-25T07:44:03.719Z,5.93
2019-05-25T07:46:45.674Z,4.87
2019-05-25T07:49:10.974Z,5.73
2019-05-25T07:51:41.131Z,3.43
2019-05-25T07:54:11.248Z,4.73
2019-05-25T07:56:41.379Z,5.33
2019-05-25T07:59:11.533Z,5.17
2019-05-25T08:01:41.704Z,3.80
2019-05-25T08:04:11.805Z,4.33
2019-05-25T08:06:41.905Z,3.53
2019-05-25T08:09:12.038Z,4.50
2019-05-25T08:11:42.172Z,4.10
2019-05-25T08:14:32.878Z,4.23
2019-05-25T08:17:03.139Z,3.80
2019-05-25T08:19:39.809Z,3.80
2019-05-25T08:22:10.054Z,7.83
2019-05-25T08:24:40.173Z,4.23
2019-05-25T08:27:10.325Z,5.53
2019-05-25T08:29:40.424Z,5.57
2019-05-25T08:32:10.563Z,3.33
2019-05-25T08:34:40.694Z,4.17
2019-05-25T08:37:10.885Z,3.30
2019-05-25T08:39:42.122Z,4.43
2019-05-25T08:42:12.205Z,3.23
2019-05-25T08:44:42.322Z,4.00
2019-05-25T08:47:31.304Z,3.40
2019-05-25T08:50:01.459Z,4.63
2019-05-25T08:52:31.593Z,3.73
2019-05-25T08:56:53.178Z,4.00
2019-05-25T08:59:23.278Z,4.53
2019-05-25T09:01:53.376Z,3.60
2019-05-25T09:04:30.896Z,4.67
2019-05-25T09:07:01.023Z,4.23
2019-05-25T09:09:36.629Z,3.40
2019-05-25T09:12:06.757Z,4.67
2019-05-25T09:14:36.890Z,6.70
2019-05-25T09:17:21.050Z,3.97
2019-05-25T09:19:51.343Z,3.70
2019-05-25T09:22:35.051Z,3.33
2019-05-25T09:25:05.548Z,5.80
2019-05-25T09:28:10.845Z,3.85
2019-05-25T09:30:41.357Z,3.50
2019-05-25T09:33:18.145Z,3.27
2019-05-25T09:35:48.234Z,5.73
2019-05-25T09:38:18.339Z,3.67
2019-05-25T09:40:48.489Z,4.37
2019-05-25T09:43:18.642Z,3.83
2019-05-25T09:45:48.741Z,3.70
2019-05-25T09:48:18.818Z,3.40
2019-05-25T09:50:53.451Z,4.03
2019-05-25T09:53:23.611Z,3.70
2019-05-25T09:56:06.692Z,3.70
2019-05-25T09:58:36.833Z,5.13
2019-05-25T10:01:07.105Z,3.70
2019-05-25T10:03:37.241Z,4.00
2019-05-25T10:06:11.806Z,4.47
2019-05-25T10:08:39.212Z,5.80
2019-05-25T10:11:09.768Z,3.80
2019-05-25T10:13:39.951Z,4.30
2019-05-25T10:16:10.105Z,3.93
2019-05-25T10:18:56.764Z,3.90
2019-05-25T10:21:27.882Z,4.30
2019-05-25T10:23:58.041Z,4.40
2019-05-25T10:26:28.124Z,5.37
2019-05-25T10:28:58.266Z,5.10
2019-05-25T10:31:28.389Z,3.70
2019-05-25T10:33:58.842Z,4.33
2019-05-25T10:36:29.077Z,4.10
2019-05-25T10:38:59.258Z,4.13
2019-05-25T10:41:49.745Z,5.00
2019-05-25T10:44:20.113Z,3.87
2019-05-25T10:46:59.363Z,3.83
2019-05-25T10:49:29.503Z,3.63
2019-05-25T10:51:59.971Z,5.30
2019-05-25T10:54:30.148Z,3.37
2019-05-25T10:57:00.432Z,3.60
2019-05-25T10:59:32.279Z,3.83
2019-05-25T11:02:02.453Z,4.00
2019-05-25T11:04:32.824Z,4.63
2019-05-25T11:07:02.919Z,4.10
2019-05-25T11:09:33.113Z,4.97
2019-05-25T11:12:03.410Z,3.50
2019-05-25T11:14:33.582Z,4.77
2019-05-25T11:17:03.752Z,4.13
2019-05-25T11:19:34.039Z,4.50
2019-05-25T11:22:04.204Z,4.10
2019-05-25T11:24:34.415Z,3.33
2019-05-25T11:27:04.653Z,3.90
2019-05-25T11:29:34.853Z,3.40
2019-05-25T11:32:06.155Z,4.60
2019-05-25T11:34:36.781Z,4.10
2019-05-25T11:37:30.661Z,6.30
2019-05-25T11:40:00.807Z,4.97
2019-05-25T11:42:31.022Z,4.57
2019-05-25T11:45:01.077Z,4.17
2019-05-25T11:47:31.524Z,3.60
2019-05-25T11:50:01.703Z,3.93
2019-05-25T11:52:31.802Z,3.83
2019-05-25T11:55:01.920Z,3.63
2019-05-25T11:57:32.232Z,3.63
2019-05-25T12:00:02.380Z,4.13
2019-05-25T12:02:32.541Z,4.10
2019-05-25T12:05:02.702Z,4.57
2019-05-25T12:07:32.789Z,3.80
2019-05-25T12:10:16.771Z,4.03
2019-05-25T12:12:47.251Z,4.23
2019-05-25T12:15:37.644Z,5.47
2019-05-25T12:18:07.771Z,3.80
2019-05-25T12:20:55.621Z,4.47
2019-05-25T12:23:25.668Z,4.27
2019-05-25T12:25:55.810Z,4.93
2019-05-25T12:28:25.944Z,3.70
2019-05-25T12:30:56.621Z,5.33
2019-05-25T12:33:26.713Z,4.83
2019-05-25T12:35:56.892Z,5.03
2019-05-25T12:38:27.044Z,3.87
2019-05-25T12:40:57.163Z,5.57
2019-05-25T12:43:27.277Z,4.83
2019-05-25T12:45:57.542Z,5.40
2019-05-25T12:48:27.646Z,4.20
2019-05-25T12:50:57.930Z,4.00
2019-05-25T12:53:28.088Z,3.90
2019-05-25T12:55:58.306Z,3.90
2019-05-25T12:58:28.426Z,4.60
2019-05-25T13:00:58.539Z,5.10
2019-05-25T13:03:28.692Z,6.97
2019-05-25T13:05:59.628Z,6.03
2019-05-25T13:08:29.817Z,5.73
2019-05-25T13:10:59.943Z,6.40
2019-05-25T13:13:30.128Z,7.23
2019-05-25T13:16:00.233Z,6.67
2019-05-25T13:18:30.342Z,6.40
2019-05-25T13:21:00.470Z,6.97
2019-05-25T13:23:30.578Z,8.63
2019-05-25T13:26:00.717Z,7.57
2019-05-25T13:28:30.905Z,6.10
2019-05-25T13:31:11.244Z,7.97
2019-05-25T13:33:32.797Z,6.57
2019-05-25T13:36:02.911Z,7.73
2019-05-25T13:38:33.084Z,6.40
2019-05-25T13:41:03.196Z,7.13
2019-05-25T13:43:59.900Z,6.00
2019-05-25T13:46:30.083Z,6.53
2019-05-25T13:49:22.140Z,6.13
2019-05-25T13:51:52.319Z,7.23
2019-05-25T13:54:22.388Z,6.07
2019-05-25T13:56:52.508Z,5.27
2019-05-25T13:59:22.710Z,5.47
2019-05-25T14:01:52.833Z,11.03
2019-05-25T14:04:23.038Z,7.47
2019-05-25T14:06:53.193Z,6.40
2019-05-25T14:09:23.334Z,8.33
2019-05-25T14:11:53.448Z,5.20
2019-05-25T14:14:24.475Z,6.80
2019-05-25T14:16:54.846Z,5.20
2019-05-25T14:19:25.118Z,6.57
2019-05-25T14:22:09.725Z,8.93
2019-05-25T14:24:39.851Z,5.40
2019-05-25T14:27:10.407Z,6.57
2019-05-25T14:29:40.508Z,6.10
2019-05-25T14:32:10.651Z,6.23
2019-05-25T14:34:40.768Z,6.27
2019-05-25T14:37:10.972Z,5.77
2019-05-25T14:39:41.177Z,7.47
2019-05-25T14:42:11.307Z,5.83
2019-05-25T14:44:41.451Z,24.73
2019-05-25T14:47:11.646Z,6.53
2019-05-25T14:49:41.842Z,7.10
2019-05-25T14:52:11.985Z,8.57
2019-05-25T14:54:45.525Z,5.27
2019-05-25T14:57:15.680Z,12.17
2019-05-25T14:59:45.810Z,4.13
2019-05-25T15:02:16.094Z,5.40
2019-05-25T15:04:46.208Z,3.97
2019-05-25T15:07:16.461Z,3.63
2019-05-25T15:09:51.997Z,5.53
2019-05-25T15:12:22.302Z,3.50
2019-05-25T15:14:52.489Z,4.07
2019-05-25T15:17:22.681Z,4.47
2019-05-25T15:19:52.876Z,4.50
2019-05-25T15:22:27.623Z,7.20
2019-05-25T15:24:57.679Z,6.13
2019-05-25T15:27:52.437Z,4.53
2019-05-25T15:30:22.870Z,4.40
2019-05-25T15:32:52.996Z,3.33
2019-05-25T15:35:23.152Z,7.67
2019-05-25T15:37:53.285Z,5.53
2019-05-25T15:40:23.652Z,11.33
2019-05-25T15:42:53.849Z,6.93
2019-05-25T15:45:23.962Z,5.93
2019-05-25T15:47:54.093Z,4.43
2019-05-25T15:50:24.992Z,4.23
2019-05-25T15:52:56.705Z,7.00
2019-05-25T15:55:33.080Z,8.40
2019-05-25T15:58:03.575Z,4.77
2019-05-25T16:00:54.551Z,5.47
2019-05-25T16:03:24.820Z,8.10
2019-05-25T16:05:54.961Z,4.30
2019-05-25T16:08:25.117Z,7.43
2019-05-25T16:10:55.202Z,8.63
2019-05-25T16:13:25.370Z,4.00
2019-05-25T16:15:55.408Z,6.30
2019-05-25T16:18:25.664Z,3.90
2019-05-25T16:20:55.820Z,5.70
2019-05-25T16:23:25.920Z,5.23
2019-05-25T16:25:56.152Z,4.00
2019-05-25T16:28:33.627Z,5.83
2019-05-25T16:31:03.785Z,4.57
2019-05-25T16:33:33.928Z,9.33
2019-05-25T16:36:04.069Z,3.80
2019-05-25T16:38:34.236Z,4.53
2019-05-25T16:41:04.448Z,10.80
2019-05-25T16:43:34.560Z,4.73
2019-05-25T16:46:04.685Z,6.40
2019-05-25T16:48:34.833Z,5.57
2019-05-25T16:51:04.999Z,5.47
2019-05-25T16:53:35.096Z,6.90
2019-05-25T16:56:19.037Z,5.73
2019-05-25T16:58:49.157Z,4.90
2019-05-25T17:01:48.217Z,4.53
2019-05-25T17:04:13.968Z,4.63
2019-05-25T17:07:04.477Z,6.00
2019-05-25T17:09:34.587Z,5.00
2019-05-25T17:12:26.648Z,4.20
2019-05-25T17:14:56.857Z,4.27
2019-05-25T17:17:51.393Z,5.30
2019-05-25T17:20:12.562Z,5.30
2019-05-25T17:22:42.666Z,4.57
2019-05-25T17:25:13.153Z,6.23
2019-05-25T17:27:43.293Z,6.30
2019-05-25T17:30:14.499Z,5.63
2019-05-25T17:32:44.715Z,6.03
2019-05-25T17:35:14.916Z,5.13
2019-05-25T17:37:45.048Z,6.57
2019-05-25T17:40:15.255Z,6.17
2019-05-25T17:42:45.389Z,5.07
2019-05-25T17:45:15.500Z,6.67
2019-05-25T17:47:45.698Z,6.50
2019-05-25T17:50:33.955Z,12.53
2019-05-25T17:53:04.233Z,8.30
2019-05-25T17:55:34.342Z,5.37
2019-05-25T17:58:04.566Z,6.30
2019-05-25T18:00:43.612Z,4.80
2019-05-25T18:03:13.744Z,4.17
2019-05-25T18:05:43.866Z,4.73
2019-05-25T18:08:14.044Z,6.67
2019-05-25T18:10:52.616Z,5.57
2019-05-25T18:13:15.906Z,8.77
2019-05-25T18:15:46.037Z,8.00
2019-05-25T18:18:16.133Z,9.17
2019-05-25T18:20:46.293Z,8.17
2019-05-25T18:23:35.324Z,4.97
2019-05-25T18:26:05.456Z,8.20
2019-05-25T18:28:35.554Z,7.90
2019-05-25T18:31:05.657Z,4.67
2019-05-25T18:33:35.782Z,5.23
2019-05-25T18:36:05.884Z,4.63
2019-05-25T18:38:36.005Z,6.17
2019-05-25T18:41:06.133Z,4.47
2019-05-25T18:43:36.264Z,7.67
2019-05-25T18:46:06.355Z,6.23
2019-05-25T18:48:36.504Z,5.73
2019-05-25T18:51:07.856Z,7.93
2019-05-25T18:53:37.994Z,5.97
2019-05-25T18:56:40.736Z,5.33
2019-05-25T18:59:10.936Z,6.00
2019-05-25T19:01:51.460Z,7.13
2019-05-25T19:04:37.085Z,8.00
2019-05-25T19:07:05.432Z,10.03
2019-05-25T19:09:37.936Z,6.97
2019-05-25T19:12:08.124Z,7.20
2019-05-25T19:14:38.197Z,7.97
2019-05-25T19:17:08.317Z,6.83
2019-05-25T19:19:38.457Z,7.47
2019-05-25T19:22:08.608Z,10.83
2019-05-25T19:24:38.720Z,9.60
2019-05-25T19:27:08.850Z,9.07
2019-05-25T19:29:39.240Z,10.33
2019-05-25T19:32:09.350Z,12.10
2019-05-25T19:34:39.478Z,10.73
2019-05-25T19:37:09.647Z,10.23
2019-05-25T19:39:42.759Z,10.27
2019-05-25T19:42:12.865Z,9.87
2019-05-25T19:45:05.432Z,12.40
2019-05-25T19:47:35.593Z,11.73
2019-05-25T19:50:28.636Z,10.23
2019-05-25T19:52:58.787Z,12.67
2019-05-25T19:55:52.120Z,10.13
2019-05-25T19:58:22.272Z,11.40
2019-05-25T20:00:57.849Z,11.43
2019-05-25T20:03:27.949Z,9.23
2019-05-25T20:05:58.067Z,12.77
2019-05-25T20:08:28.229Z,11.87
2019-05-25T20:10:58.260Z,9.90
2019-05-25T20:13:28.376Z,7.07
2019-05-25T20:15:58.584Z,7.60
2019-05-25T20:18:28.681Z,9.07
2019-05-25T20:20:58.813Z,11.30
2019-05-25T20:23:28.978Z,11.97
2019-05-25T20:25:59.114Z,10.87
2019-05-25T20:28:50.656Z,10.70
2019-05-25T20:31:19.413Z,8.60
2019-05-25T20:33:49.518Z,10.67
2019-05-25T20:36:19.629Z,12.23
2019-05-25T20:39:06.486Z,8.27
2019-05-25T20:41:36.639Z,7.50
2019-05-25T20:44:30.658Z,11.17
2019-05-25T20:47:00.808Z,9.97
2019-05-25T20:49:53.719Z,11.73
2019-05-25T20:52:23.829Z,11.33
2019-05-25T20:55:17.565Z,11.60
2019-05-25T20:57:49.045Z,10.23
2019-05-25T21:00:42.437Z,11.23
2019-05-25T21:03:12.560Z,11.23
2019-05-25T21:06:05.635Z,11.63
2019-05-25T21:08:35.740Z,12.80
2019-05-25T21:11:33.865Z,11.67
2019-05-25T21:14:04.114Z,9.20
2019-05-25T21:16:53.317Z,10.10
2019-05-25T21:19:23.448Z,9.73
2019-05-25T21:22:09.618Z,11.30
2019-05-25T21:24:36.561Z,12.77
2019-05-25T21:27:06.675Z,11.33
2019-05-25T21:29:36.840Z,14.77
2019-05-25T21:32:06.982Z,12.63
2019-05-25T21:34:37.119Z,12.87
2019-05-25T21:37:07.199Z,11.20
2019-05-25T21:39:37.393Z,14.40
2019-05-25T21:42:07.549Z,14.67
2019-05-25T21:44:37.644Z,12.03
2019-05-25T21:47:07.763Z,13.63
2019-05-25T21:49:37.844Z,13.60
2019-05-25T21:52:07.959Z,12.10
2019-05-25T21:54:41.697Z,11.63
2019-05-25T21:57:11.834Z,14.43
2019-05-25T22:00:04.235Z,11.77
2019-05-25T22:02:34.377Z,14.03
2019-05-25T22:05:15.936Z,11.20
2019-05-25T22:07:46.616Z,17.00
2019-05-25T22:10:17.020Z,13.60
2019-05-25T22:12:47.181Z,10.60
2019-05-25T22:15:17.295Z,11.53
2019-05-25T22:17:47.418Z,11.50
2019-05-25T22:20:17.760Z,9.80
2019-05-25T22:22:47.854Z,11.80
2019-05-25T22:25:19.479Z,10.33
2019-05-25T22:27:49.600Z,16.37
2019-05-25T22:30:20.612Z,10.50
2019-05-25T22:32:50.697Z,11.80
2019-05-25T22:35:20.854Z,12.93
2019-05-25T22:37:54.044Z,8.70
2019-05-25T22:40:24.171Z,11.13
2019-05-25T22:43:18.437Z,9.97
2019-05-25T22:45:48.549Z,10.27
2019-05-25T22:48:43.726Z,12.97
2019-05-25T22:51:13.879Z,11.73
2019-05-25T22:54:04.759Z,10.03
2019-05-25T22:56:36.306Z,10.13
2019-05-25T22:59:31.690Z,10.30
2019-05-25T23:02:01.841Z,9.83
2019-05-25T23:04:55.877Z,11.87
2019-05-25T23:07:26.021Z,10.03
2019-05-25T23:10:17.598Z,12.10
2019-05-25T23:12:47.740Z,10.83
2019-05-25T23:15:39.311Z,10.33
2019-05-25T23:18:09.453Z,11.43
2019-05-25T23:20:39.543Z,12.77
2019-05-25T23:23:09.731Z,9.70
2019-05-25T23:25:39.838Z,13.80
2019-05-25T23:28:09.976Z,11.27
2019-05-25T23:30:40.213Z,10.67
2019-05-25T23:33:10.348Z,13.60
2019-05-25T23:35:40.449Z,10.87
2019-05-25T23:38:10.567Z,9.90
2019-05-25T23:40:52.043Z,9.20
2019-05-25T23:43:22.186Z,7.90
2019-05-25T23:45:52.256Z,9.63
2019-05-25T23:48:22.408Z,12.33
2019-05-25T23:50:52.493Z,9.20
2019-05-25T23:53:31.479Z,8.70
2019-05-25T23:56:01.607Z,10.90
2019-05-25T23:58:52.575Z,7.60
